Time;durP1;ratioP1;P1;durP2;ratioP2;P2;SDS_P1;SDS_P2;PMS_P1;PMS_P2;Temp;Humidity;BMP_temperature;BMP_pressure;BME280_temperature;BME280_humidity;BME280_pressure;Samples;Min_cycle;Max_cycle;Signal;HPM_P1;HPM_P2
2022/11/20 00:02:26;;;;;;;21.30;11.27;;;-1.60;99.90;;;;;;5036483;28;20037;-61
2022/11/20 00:04:51;;;;;;;22.38;11.32;;;-1.60;99.90;;;;;;5030779;28;20045;-62
2022/11/20 00:07:17;;;;;;;24.60;11.43;;;-1.50;99.90;;;;;;5054392;28;20071;-62
2022/11/20 00:09:42;;;;;;;23.30;11.68;;;-1.50;99.90;;;;;;5033052;28;20099;-62
2022/11/20 00:12:08;;;;;;;25.58;11.75;;;-1.50;99.90;;;;;;5033629;28;20045;-62
2022/11/20 00:14:34;;;;;;;22.50;12.00;;;-1.30;99.90;;;;;;5036540;28;20056;-62
2022/11/20 00:16:59;;;;;;;26.33;12.45;;;-1.30;99.90;;;;;;5031117;28;20919;-62
2022/11/20 00:19:25;;;;;;;25.63;11.75;;;-1.30;99.90;;;;;;5032108;28;20033;-62
2022/11/20 00:21:53;;;;;;;22.58;11.73;;;-1.30;99.90;;;;;;5029373;28;20485;-62
2022/11/20 00:24:19;;;;;;;23.95;12.07;;;-1.20;99.90;;;;;;5031065;28;20049;-61
2022/11/20 00:26:44;;;;;;;25.10;12.27;;;-1.20;99.90;;;;;;5031401;28;20426;-62
2022/11/20 00:29:10;;;;;;;24.10;11.85;;;-1.20;99.90;;;;;;5034673;28;20041;-62
2022/11/20 00:31:36;;;;;;;24.25;11.07;;;-1.20;99.90;;;;;;5035893;28;20045;-62
2022/11/20 00:34:02;;;;;;;22.35;11.95;;;-1.20;99.90;;;;;;5030019;28;20041;-62
2022/11/20 00:36:31;;;;;;;26.65;11.27;;;-1.20;99.90;;;;;;5040098;28;20041;-62
2022/11/20 00:38:58;;;;;;;21.10;10.32;;;-1.20;99.90;;;;;;5040547;28;20167;-62
2022/11/20 00:41:25;;;;;;;24.02;11.45;;;-1.10;99.90;;;;;;5046101;28;20400;-62
2022/11/20 00:43:52;;;;;;;22.38;10.07;;;-1.10;99.90;;;;;;5047677;28;20034;-61
2022/11/20 00:46:20;;;;;;;21.15;10.70;;;-1.10;99.90;;;;;;5032397;28;20402;-62
2022/11/20 00:48:46;;;;;;;21.83;10.23;;;-1.10;99.90;;;;;;5033047;28;20482;-63
2022/11/20 00:51:14;;;;;;;21.30;10.15;;;-1.10;99.90;;;;;;5030999;28;20041;-62
2022/11/20 00:53:40;;;;;;;21.00;10.93;;;-1.00;99.90;;;;;;5030515;28;20106;-62
2022/11/20 00:56:09;;;;;;;20.02;9.25;;;-1.00;99.90;;;;;;5030852;28;20045;-62
2022/11/20 00:58:37;;;;;;;20.60;10.30;;;-1.10;99.90;;;;;;5026632;28;20042;-62
2022/11/20 01:01:09;;;;;;;21.15;10.93;;;-1.00;99.90;;;;;;5032880;28;20124;-62
2022/11/20 01:03:38;;;;;;;23.02;10.52;;;-1.00;99.90;;;;;;5034733;28;20041;-63
2022/11/20 01:06:13;;;;;;;21.65;12.43;;;-0.90;99.90;;;;;;5035627;28;20053;-62
2022/11/20 01:08:39;;;;;;;23.55;10.05;;;-1.00;99.90;;;;;;5053462;28;20044;-61
2022/11/20 01:11:08;;;;;;;22.42;10.27;;;-0.90;99.90;;;;;;5029837;28;20132;-62
2022/11/20 01:13:37;;;;;;;25.30;11.40;;;-1.00;99.90;;;;;;5052238;28;20133;-63
2022/11/20 01:16:05;;;;;;;17.80;9.23;;;-0.90;99.90;;;;;;5031471;28;20060;-62
2022/11/20 01:18:31;;;;;;;20.75;9.85;;;-0.90;99.90;;;;;;5030953;28;20045;-62
2022/11/20 01:21:06;;;;;;;21.48;9.57;;;-0.90;99.90;;;;;;5031742;28;20474;-62
2022/11/20 01:23:37;;;;;;;21.48;11.00;;;-0.80;99.90;;;;;;5032050;28;20120;-62
2022/11/20 01:26:04;;;;;;;19.92;10.25;;;-0.90;99.90;;;;;;5029787;28;20050;-62
2022/11/20 01:28:31;;;;;;;20.85;10.50;;;-0.90;99.90;;;;;;5043523;28;20432;-62
2022/11/20 01:30:57;;;;;;;19.98;10.50;;;-0.90;99.90;;;;;;5036906;28;20489;-62
2022/11/20 01:33:23;;;;;;;19.33;10.40;;;-0.80;99.90;;;;;;5031135;28;20592;-63
2022/11/20 01:35:48;;;;;;;20.42;10.70;;;-0.80;99.90;;;;;;5036266;28;20076;-62
2022/11/20 01:38:16;;;;;;;20.42;10.15;;;-0.80;99.90;;;;;;5030177;28;20378;-63
2022/11/20 01:40:41;;;;;;;20.98;11.00;;;-0.80;99.90;;;;;;5030791;28;20037;-62
2022/11/20 01:43:22;;;;;;;20.42;10.32;;;-0.70;99.90;;;;;;5030590;28;20041;-62
2022/11/20 01:45:56;;;;;;;20.08;10.32;;;-0.80;99.90;;;;;;5033125;28;20044;-62
2022/11/20 01:48:24;;;;;;;21.73;11.00;;;-0.80;99.90;;;;;;5031466;28;20056;-62
2022/11/20 01:50:52;;;;;;;19.95;10.95;;;-0.70;99.90;;;;;;5033560;28;20546;-63
2022/11/20 01:53:21;;;;;;;20.90;10.48;;;-0.70;99.90;;;;;;5033519;28;20124;-62
2022/11/20 01:55:51;;;;;;;23.00;11.73;;;-0.70;99.90;;;;;;5027703;28;20033;-62
2022/11/20 01:58:22;;;;;;;20.23;10.75;;;-0.70;99.90;;;;;;5041204;28;20172;-62
2022/11/20 02:00:47;;;;;;;21.70;12.15;;;-0.70;99.90;;;;;;5030347;28;20040;-62
2022/11/20 02:03:16;;;;;;;24.15;12.18;;;-0.70;99.90;;;;;;5049261;28;20081;-62
2022/11/20 02:05:57;;;;;;;22.33;11.00;;;-0.70;99.90;;;;;;5031688;28;20682;-62
2022/11/20 02:08:23;;;;;;;20.42;11.75;;;-0.70;99.90;;;;;;5031178;28;20057;-62
2022/11/20 02:10:49;;;;;;;21.00;10.70;;;-0.60;99.90;;;;;;5030509;28;20052;-62
2022/11/20 02:15:59;;;;;;;21.45;10.65;;;-0.60;99.90;;;;;;5035189;28;20049;-62
2022/11/20 02:18:26;;;;;;;20.33;11.18;;;-0.60;99.90;;;;;;5026979;28;20405;-62
2022/11/20 02:20:58;;;;;;;20.60;9.73;;;-0.60;99.90;;;;;;5028604;28;20036;-62
2022/11/20 02:23:39;;;;;;;21.67;11.40;;;-0.60;99.90;;;;;;5044284;28;20037;-62
2022/11/20 02:26:10;;;;;;;25.00;11.13;;;-0.60;99.90;;;;;;5027290;28;20045;-62
2022/11/20 02:28:36;;;;;;;21.10;10.73;;;-0.60;99.90;;;;;;5028097;28;20049;-62
2022/11/20 02:31:01;;;;;;;21.02;10.80;;;-0.50;99.90;;;;;;5031582;28;20038;-62
2022/11/20 02:33:27;;;;;;;20.70;11.05;;;-0.50;99.90;;;;;;5028416;28;20130;-62
2022/11/20 02:35:52;;;;;;;17.92;10.38;;;-0.50;99.90;;;;;;5027697;28;20038;-63
2022/11/20 02:38:19;;;;;;;22.85;11.27;;;-0.50;99.90;;;;;;5044255;28;20057;-62
2022/11/20 02:40:44;;;;;;;21.38;10.65;;;-0.50;99.90;;;;;;5042781;28;20045;-62
2022/11/20 02:43:10;;;;;;;20.65;10.88;;;-0.50;99.90;;;;;;5029509;28;20650;-62
2022/11/20 02:45:36;;;;;;;24.88;11.75;;;-0.40;99.90;;;;;;5028766;28;20048;-63
2022/11/20 02:48:01;;;;;;;22.00;10.85;;;-0.40;99.90;;;;;;5026198;28;20085;-62
2022/11/20 02:50:27;;;;;;;23.08;10.73;;;-0.40;99.90;;;;;;5048477;28;20500;-62
2022/11/20 02:52:52;;;;;;;20.60;11.80;;;-0.40;99.90;;;;;;5027685;28;20512;-63
2022/11/20 02:55:18;;;;;;;24.70;12.38;;;-0.40;99.90;;;;;;5029187;28;20413;-62
2022/11/20 02:57:44;;;;;;;23.30;12.13;;;-0.40;99.90;;;;;;5026490;28;20095;-62
2022/11/20 03:00:10;;;;;;;21.65;11.77;;;-0.40;99.90;;;;;;5028853;28;20037;-62
2022/11/20 03:02:36;;;;;;;19.42;10.68;;;-0.40;99.90;;;;;;5029273;28;20413;-62
2022/11/20 03:05:01;;;;;;;22.13;11.00;;;-0.30;99.90;;;;;;5031909;28;20033;-62
2022/11/20 03:07:27;;;;;;;22.20;11.25;;;-0.40;99.90;;;;;;5031401;28;20092;-62
2022/11/20 03:09:52;;;;;;;19.60;10.77;;;-0.40;99.90;;;;;;5034661;28;20107;-61
2022/11/20 03:12:18;;;;;;;19.27;10.93;;;-0.30;99.90;;;;;;5032702;28;20132;-62
2022/11/20 03:14:43;;;;;;;20.73;11.45;;;-0.30;99.90;;;;;;5028701;28;20720;-62
2022/11/20 03:17:09;;;;;;;21.05;10.93;;;-0.30;99.90;;;;;;5045730;28;20037;-62
2022/11/20 03:19:34;;;;;;;22.20;11.90;;;-0.30;99.90;;;;;;5033401;28;20040;-62
2022/11/20 03:22:00;;;;;;;21.23;11.07;;;-0.30;99.90;;;;;;5046278;28;20037;-62
2022/11/20 03:24:26;;;;;;;23.95;11.70;;;-0.30;99.90;;;;;;5030604;28;20140;-63
2022/11/20 03:26:52;;;;;;;23.25;12.02;;;-0.20;99.90;;;;;;5029121;28;20477;-62
2022/11/20 03:29:17;;;;;;;21.27;12.27;;;-0.20;99.90;;;;;;5027737;28;20041;-62
2022/11/20 03:31:43;;;;;;;24.25;11.82;;;-0.30;99.90;;;;;;5028966;28;20392;-62
2022/11/20 03:34:10;;;;;;;19.35;10.80;;;-0.30;99.90;;;;;;5027038;28;20044;-61
2022/11/20 03:36:39;;;;;;;23.15;11.50;;;-0.30;99.90;;;;;;5028035;28;20037;-62
2022/11/20 03:39:04;;;;;;;21.83;11.55;;;-0.20;99.90;;;;;;5047952;28;20527;-62
2022/11/20 03:41:31;;;;;;;23.60;11.85;;;-0.30;99.90;;;;;;5028437;28;20042;-62
2022/11/20 03:44:02;;;;;;;21.30;11.30;;;-0.20;99.90;;;;;;5029114;28;20547;-63
2022/11/20 03:46:28;;;;;;;25.52;13.63;;;-0.20;99.90;;;;;;5034522;28;20037;-62
2022/11/20 03:48:54;;;;;;;22.27;11.75;;;-0.20;99.90;;;;;;5025779;28;20427;-62
2022/11/20 03:51:23;;;;;;;21.35;11.85;;;-0.20;99.90;;;;;;5026327;28;20041;-62
2022/11/20 03:53:51;;;;;;;22.77;11.60;;;-0.20;99.90;;;;;;5029572;28;20667;-63
2022/11/20 03:56:19;;;;;;;20.13;11.15;;;-0.20;99.90;;;;;;5027234;28;20049;-62
2022/11/20 03:58:45;;;;;;;22.45;12.02;;;-0.20;99.90;;;;;;5027301;28;20038;-62
2022/11/20 04:01:14;;;;;;;22.13;11.50;;;-0.20;99.90;;;;;;5029208;28;20561;-62
2022/11/20 04:03:40;;;;;;;25.33;12.13;;;-0.20;99.90;;;;;;5029321;28;20116;-61
2022/11/20 04:06:28;;;;;;;19.52;10.85;;;-0.20;99.90;;;;;;5032770;28;20056;-62
2022/11/20 04:08:55;;;;;;;20.55;11.95;;;-0.10;99.90;;;;;;5029120;28;20092;-62
2022/11/20 04:11:22;;;;;;;22.55;10.93;;;-0.10;99.90;;;;;;5027257;28;20052;-62
2022/11/20 04:13:50;;;;;;;20.42;11.07;;;-0.10;99.90;;;;;;5036533;28;20051;-62
2022/11/20 04:16:17;;;;;;;21.33;11.43;;;-0.10;99.90;;;;;;5032565;28;20069;-62
2022/11/20 04:18:43;;;;;;;21.75;10.95;;;-0.10;99.90;;;;;;5027492;28;20042;-62
2022/11/20 04:21:08;;;;;;;20.10;10.40;;;-0.10;99.90;;;;;;5029018;28;20865;-62
2022/11/20 04:23:34;;;;;;;22.92;11.27;;;-0.10;99.90;;;;;;5028867;28;20069;-62
2022/11/20 04:26:11;;;;;;;19.67;10.88;;;-0.10;99.90;;;;;;5029936;28;20050;-62
2022/11/20 04:28:37;;;;;;;23.80;11.32;;;-0.10;99.90;;;;;;5034899;28;20041;-61
2022/11/20 04:31:09;;;;;;;19.35;11.20;;;-0.10;99.90;;;;;;5038269;28;20041;-64
2022/11/20 04:33:35;;;;;;;19.80;11.18;;;0.00;99.90;;;;;;5031374;28;20042;-61
2022/11/20 04:36:03;;;;;;;21.95;11.48;;;0.00;99.90;;;;;;5033544;28;20389;-62
2022/11/20 04:38:29;;;;;;;18.70;10.43;;;0.00;99.90;;;;;;5039205;28;22495;-62
2022/11/20 04:41:03;;;;;;;17.25;10.23;;;0.00;99.90;;;;;;5030768;28;20037;-62
2022/11/20 04:43:29;;;;;;;20.42;10.70;;;0.00;99.90;;;;;;5033702;28;20485;-62
2022/11/20 04:45:56;;;;;;;20.40;10.50;;;0.00;99.90;;;;;;5033132;28;20038;-62
2022/11/20 04:48:22;;;;;;;22.85;11.20;;;0.00;99.90;;;;;;5026676;28;20400;-62
2022/11/20 04:50:48;;;;;;;20.27;10.98;;;0.00;99.90;;;;;;5031691;28;20132;-63
2022/11/20 04:53:14;;;;;;;17.88;10.70;;;0.00;99.90;;;;;;5030652;28;20473;-62
2022/11/20 04:55:39;;;;;;;20.45;10.80;;;0.00;99.90;;;;;;5034530;28;20045;-63
2022/11/20 04:58:05;;;;;;;21.80;10.98;;;0.00;99.90;;;;;;5036488;28;20041;-62
2022/11/20 05:00:30;;;;;;;19.05;10.40;;;0.00;99.90;;;;;;5043113;28;20136;-61
2022/11/20 05:02:56;;;;;;;21.45;11.00;;;0.10;99.90;;;;;;5031615;28;20033;-62
2022/11/20 05:05:21;;;;;;;19.65;9.88;;;0.10;99.90;;;;;;5029573;28;20033;-62
2022/11/20 05:07:47;;;;;;;17.85;10.05;;;0.10;99.90;;;;;;5051662;28;20090;-62
2022/11/20 05:10:13;;;;;;;19.95;11.50;;;0.00;99.90;;;;;;5035930;28;20076;-62
2022/11/20 05:12:38;;;;;;;21.85;10.57;;;0.10;99.90;;;;;;5030993;28;20037;-61
2022/11/20 05:15:04;;;;;;;19.45;10.00;;;0.10;99.90;;;;;;5029326;28;20050;-62
2022/11/20 05:17:30;;;;;;;21.60;10.80;;;0.10;99.90;;;;;;5034619;28;20098;-61
2022/11/20 05:19:55;;;;;;;18.60;9.98;;;0.10;99.90;;;;;;5051510;28;20586;-62
2022/11/20 05:22:21;;;;;;;23.80;11.00;;;0.10;99.90;;;;;;5036166;28;20123;-62
2022/11/20 05:24:47;;;;;;;22.15;11.00;;;0.10;99.90;;;;;;5036768;28;20037;-61
2022/11/20 05:27:12;;;;;;;19.80;10.30;;;0.10;99.90;;;;;;5039957;28;20408;-61
2022/11/20 05:29:38;;;;;;;18.95;10.85;;;0.10;99.90;;;;;;5029133;28;20095;-61
2022/11/20 05:32:05;;;;;;;20.70;10.50;;;0.10;99.90;;;;;;5032163;28;20381;-62
2022/11/20 05:34:31;;;;;;;17.77;10.75;;;0.10;99.90;;;;;;5033840;28;20044;-62
2022/11/20 05:36:57;;;;;;;19.60;10.02;;;0.10;99.90;;;;;;5033271;28;20038;-61
2022/11/20 05:39:22;;;;;;;20.30;11.20;;;0.10;99.90;;;;;;5031119;28;20132;-62
2022/11/20 05:42:29;;;;;;;18.92;9.90;;;0.10;99.90;;;;;;5029587;28;20211;-62
2022/11/20 05:44:33;;;;;;;18.48;9.30;;;0.10;99.90;;;;;;5027994;28;20041;-62
2022/11/20 05:46:59;;;;;;;17.08;9.80;;;0.10;99.90;;;;;;5033402;28;20048;-61
2022/11/20 05:49:24;;;;;;;18.65;9.88;;;0.10;99.90;;;;;;5028963;28;20045;-61
2022/11/20 05:51:50;;;;;;;17.33;10.10;;;0.20;99.90;;;;;;5030069;28;20033;-62
2022/11/20 05:54:15;;;;;;;19.42;9.73;;;0.20;99.90;;;;;;5035953;28;20120;-62
2022/11/20 05:56:41;;;;;;;19.67;9.82;;;0.20;99.90;;;;;;5026138;28;20163;-62
2022/11/20 05:59:07;;;;;;;17.80;9.75;;;0.10;99.90;;;;;;5029061;28;20642;-61
2022/11/20 06:01:32;;;;;;;17.77;9.65;;;0.10;99.90;;;;;;5031640;28;20527;-62
2022/11/20 06:03:58;;;;;;;19.30;10.70;;;0.20;99.90;;;;;;5036429;28;20034;-62
2022/11/20 06:06:25;;;;;;;17.10;9.32;;;0.20;99.90;;;;;;5029094;28;20642;-62
2022/11/20 06:08:51;;;;;;;19.60;9.75;;;0.10;99.90;;;;;;5048059;28;20049;-62
2022/11/20 06:11:17;;;;;;;18.95;10.32;;;0.10;99.90;;;;;;5029478;28;20536;-63
2022/11/20 06:13:44;;;;;;;15.98;8.80;;;0.10;99.90;;;;;;5034368;28;20061;-62
2022/11/20 06:16:11;;;;;;;19.27;10.48;;;0.10;99.90;;;;;;5043448;28;20142;-61
2022/11/20 06:18:37;;;;;;;17.95;9.82;;;0.10;99.90;;;;;;5036574;28;20037;-61
2022/11/20 06:21:12;;;;;;;18.15;9.27;;;0.10;99.90;;;;;;5045745;28;20874;-62
2022/11/20 06:23:38;;;;;;;15.38;8.43;;;0.10;99.90;;;;;;5038422;28;20037;-61
2022/11/20 06:26:13;;;;;;;17.52;8.93;;;0.20;99.90;;;;;;5026205;28;20160;-62
2022/11/20 06:28:39;;;;;;;17.48;9.15;;;0.10;99.90;;;;;;5033158;28;20037;-62
2022/11/20 06:31:06;;;;;;;14.75;8.45;;;0.10;99.90;;;;;;5039950;28;20040;-62
2022/11/20 06:33:31;;;;;;;17.52;8.80;;;0.00;99.90;;;;;;5036059;28;20047;-62
2022/11/20 06:35:58;;;;;;;16.83;8.23;;;0.10;99.90;;;;;;5036976;28;20510;-62
2022/11/20 06:38:25;;;;;;;14.18;8.40;;;0.10;99.90;;;;;;5033891;28;20065;-63
2022/11/20 06:40:51;;;;;;;17.98;9.13;;;0.10;99.90;;;;;;5041145;28;20029;-62
2022/11/20 06:43:17;;;;;;;17.00;9.15;;;0.10;99.90;;;;;;5028728;28;20036;-62
2022/11/20 06:45:42;;;;;;;16.55;8.75;;;0.10;99.90;;;;;;5040424;28;20035;-62
2022/11/20 06:48:08;;;;;;;17.02;8.60;;;0.10;99.90;;;;;;5037807;28;20151;-62
2022/11/20 06:50:33;;;;;;;15.88;8.52;;;0.10;99.90;;;;;;5048146;28;20051;-61
2022/11/20 06:53:03;;;;;;;15.52;8.27;;;0.20;99.90;;;;;;5043553;28;20048;-62
2022/11/20 06:55:30;;;;;;;15.43;8.93;;;0.20;99.90;;;;;;5039864;28;20037;-62
2022/11/20 06:57:56;;;;;;;16.00;7.88;;;0.10;99.90;;;;;;5034535;28;20079;-62
2022/11/20 07:00:21;;;;;;;17.20;8.50;;;0.10;99.90;;;;;;5047601;28;20057;-62
2022/11/20 07:02:47;;;;;;;16.52;8.60;;;0.10;99.90;;;;;;5044546;28;20040;-63
2022/11/20 07:05:12;;;;;;;15.88;8.65;;;0.10;99.90;;;;;;5028200;28;20033;-62
2022/11/20 07:07:38;;;;;;;16.70;7.95;;;0.10;99.90;;;;;;5042060;28;20167;-62
2022/11/20 07:10:04;;;;;;;15.50;7.72;;;0.10;99.90;;;;;;5031823;28;20477;-62
2022/11/20 07:12:30;;;;;;;15.63;8.05;;;0.10;99.90;;;;;;5041324;28;20052;-62
2022/11/20 07:14:55;;;;;;;15.43;8.40;;;0.10;99.90;;;;;;5042061;28;20033;-62
2022/11/20 07:17:21;;;;;;;16.13;7.88;;;0.10;99.90;;;;;;5035313;28;20038;-62
2022/11/20 07:19:46;;;;;;;13.85;7.72;;;0.10;99.90;;;;;;5026333;28;20115;-62
2022/11/20 07:22:13;;;;;;;16.38;9.15;;;0.10;99.90;;;;;;5029029;28;20103;-62
2022/11/20 07:24:38;;;;;;;15.90;7.90;;;0.20;99.90;;;;;;5051670;28;20044;-62
2022/11/20 07:27:04;;;;;;;16.10;9.23;;;0.20;99.90;;;;;;5028829;28;20033;-62
2022/11/20 07:29:30;;;;;;;15.85;8.98;;;0.20;99.90;;;;;;5046700;28;20420;-62
2022/11/20 07:31:56;;;;;;;15.98;9.07;;;0.10;99.90;;;;;;5040292;28;20056;-62
2022/11/20 07:34:22;;;;;;;17.77;9.07;;;0.10;99.90;;;;;;5032871;28;20464;-62
2022/11/20 07:36:47;;;;;;;17.02;9.48;;;0.20;99.90;;;;;;5030288;28;20125;-61
2022/11/20 07:39:13;;;;;;;14.02;8.23;;;0.20;99.90;;;;;;5039672;28;20389;-62
2022/11/20 07:41:38;;;;;;;16.98;9.40;;;0.20;99.90;;;;;;5045027;28;20108;-62
2022/11/20 07:44:04;;;;;;;21.10;12.70;;;0.20;99.90;;;;;;5026377;28;20140;-62
2022/11/20 07:46:30;;;;;;;22.50;11.82;;;0.30;99.90;;;;;;5029598;28;20034;-62
2022/11/20 07:48:56;;;;;;;19.98;11.43;;;0.30;99.90;;;;;;5032098;28;20045;-62
2022/11/20 07:51:21;;;;;;;19.45;9.20;;;0.30;99.90;;;;;;5028250;28;20489;-62
2022/11/20 07:53:47;;;;;;;16.15;8.80;;;0.30;99.90;;;;;;5027514;28;20374;-62
2022/11/20 07:56:13;;;;;;;18.20;8.95;;;0.30;99.90;;;;;;5029767;28;20529;-63
2022/11/20 07:58:39;;;;;;;19.90;9.45;;;0.30;99.90;;;;;;5030293;28;20128;-63
2022/11/20 08:01:06;;;;;;;17.00;8.25;;;0.30;99.90;;;;;;5039248;28;20112;-63
2022/11/20 08:03:32;;;;;;;14.38;8.30;;;0.40;99.90;;;;;;5034653;28;20045;-61
2022/11/20 08:06:01;;;;;;;16.48;9.40;;;0.40;99.90;;;;;;5042149;28;20033;-62
2022/11/20 08:08:28;;;;;;;17.35;8.35;;;0.40;99.90;;;;;;5034489;28;20052;-61
2022/11/20 08:14:11;;;;;;;17.08;9.40;;;0.50;99.90;;;;;;5044491;28;20049;-61
2022/11/20 08:16:23;;;;;;;18.15;8.95;;;0.50;99.90;;;;;;5032227;28;20122;-61
2022/11/20 08:18:49;;;;;;;14.60;8.13;;;0.50;99.90;;;;;;5042494;28;20517;-62
2022/11/20 08:21:15;;;;;;;16.67;8.45;;;0.50;99.90;;;;;;5042655;28;20536;-61
2022/11/20 08:23:40;;;;;;;15.90;7.97;;;0.50;99.90;;;;;;5050247;28;20044;-62
2022/11/20 08:26:06;;;;;;;14.38;8.60;;;0.50;99.90;;;;;;5043620;28;20079;-62
2022/11/20 08:28:31;;;;;;;16.63;8.48;;;0.50;99.90;;;;;;5044492;28;20048;-62
2022/11/20 08:31:01;;;;;;;13.68;8.48;;;0.50;99.90;;;;;;5048177;28;20045;-61
2022/11/20 08:33:27;;;;;;;16.20;8.40;;;0.60;99.90;;;;;;5035531;28;20033;-62
2022/11/20 08:35:53;;;;;;;14.65;8.40;;;0.60;99.90;;;;;;5034864;28;20858;-62
2022/11/20 08:38:18;;;;;;;17.50;8.68;;;0.60;99.90;;;;;;5041955;28;20049;-62
2022/11/20 08:41:23;;;;;;;14.98;8.10;;;0.70;99.90;;;;;;5008085;28;20036;-62
2022/11/20 08:43:29;;;;;;;14.52;7.80;;;0.60;99.90;;;;;;5039224;28;20516;-63
2022/11/20 08:45:57;;;;;;;17.42;8.25;;;0.70;99.90;;;;;;5041551;28;20033;-61
2022/11/20 08:48:22;;;;;;;15.80;8.27;;;0.70;99.90;;;;;;5031463;28;20045;-61
2022/11/20 08:50:48;;;;;;;15.30;8.75;;;0.80;99.90;;;;;;5031234;28;20041;-63
2022/11/20 08:53:13;;;;;;;14.93;8.80;;;0.80;99.90;;;;;;5030382;28;20440;-62
2022/11/20 08:55:39;;;;;;;16.77;9.02;;;0.80;99.90;;;;;;5033647;28;20638;-61
2022/11/20 08:58:05;;;;;;;13.63;8.68;;;0.80;99.90;;;;;;5031288;28;20046;-62
2022/11/20 09:00:32;;;;;;;14.02;7.97;;;0.80;99.90;;;;;;5034900;28;20542;-62
2022/11/20 09:02:58;;;;;;;16.55;8.38;;;0.90;99.90;;;;;;5047014;28;20593;-62
2022/11/20 09:05:24;;;;;;;13.32;6.80;;;0.90;99.90;;;;;;5031561;28;20034;-62
2022/11/20 09:07:49;;;;;;;13.98;8.32;;;0.90;99.90;;;;;;5042954;28;20131;-62
2022/11/20 09:10:16;;;;;;;13.23;7.55;;;0.80;99.90;;;;;;5038894;28;22457;-62
2022/11/20 09:12:42;;;;;;;17.05;8.65;;;0.90;99.90;;;;;;5048121;28;20059;-62
2022/11/20 09:15:07;;;;;;;14.35;8.38;;;0.90;99.90;;;;;;5046865;28;20069;-61
2022/11/20 09:17:33;;;;;;;12.30;7.75;;;0.90;99.90;;;;;;5037019;28;20044;-62
2022/11/20 09:19:58;;;;;;;12.85;7.68;;;0.90;99.90;;;;;;5034296;28;20040;-61
2022/11/20 09:22:24;;;;;;;13.05;8.27;;;0.90;99.90;;;;;;5031254;28;20037;-62
2022/11/20 09:24:50;;;;;;;13.68;7.35;;;1.00;99.90;;;;;;5034076;28;20051;-63
2022/11/20 09:27:20;;;;;;;14.40;7.95;;;1.00;99.90;;;;;;5041037;28;20044;-61
2022/11/20 09:29:46;;;;;;;14.35;7.97;;;1.00;99.90;;;;;;5043796;28;20808;-63
2022/11/20 09:32:11;;;;;;;14.80;8.48;;;1.10;99.90;;;;;;5051556;28;20051;-63
2022/11/20 09:34:37;;;;;;;15.18;8.48;;;1.10;99.90;;;;;;5035728;28;20039;-62
2022/11/20 09:37:02;;;;;;;17.25;8.45;;;1.10;99.90;;;;;;5045604;28;20072;-62
2022/11/20 09:39:28;;;;;;;15.43;7.80;;;1.20;99.90;;;;;;5033087;28;20037;-63
2022/11/20 09:41:59;;;;;;;14.63;7.95;;;1.20;99.90;;;;;;5047483;28;20073;-63
2022/11/20 09:44:34;;;;;;;15.55;8.02;;;1.30;99.90;;;;;;5048660;28;20067;-61
2022/11/20 09:47:12;;;;;;;12.95;7.35;;;1.30;99.90;;;;;;5038273;28;20044;-61
2022/11/20 09:49:53;;;;;;;11.68;7.18;;;1.40;99.90;;;;;;5046022;28;20091;-61
2022/11/20 09:52:26;;;;;;;11.35;6.60;;;1.50;99.90;;;;;;5030340;28;20045;-62
2022/11/20 09:54:53;;;;;;;13.02;7.00;;;1.50;99.90;;;;;;5055276;28;20076;-63
2022/11/20 09:57:23;;;;;;;13.30;7.47;;;1.60;99.90;;;;;;5042774;28;20041;-62
2022/11/20 10:00:01;;;;;;;14.10;7.33;;;1.60;99.90;;;;;;5035953;28;20033;-61
2022/11/20 10:02:39;;;;;;;12.95;7.22;;;1.60;99.90;;;;;;5037636;28;20039;-62
2022/11/20 10:05:15;;;;;;;12.85;7.15;;;1.70;99.90;;;;;;5039559;28;20064;-62
2022/11/20 10:07:55;;;;;;;14.07;7.90;;;1.70;99.90;;;;;;5037382;28;20089;-62
2022/11/20 10:10:41;;;;;;;14.13;8.00;;;1.70;99.90;;;;;;5040640;28;20076;-63
2022/11/20 10:13:07;;;;;;;13.70;7.38;;;1.80;99.90;;;;;;5041279;28;20041;-62
2022/11/20 10:16:17;;;;;;;14.20;6.38;;;1.90;99.90;;;;;;5046647;28;20123;-62
2022/11/20 10:18:47;;;;;;;13.70;7.93;;;1.80;99.90;;;;;;4996660;28;20078;-64
2022/11/20 10:21:19;;;;;;;13.30;7.45;;;1.80;99.90;;;;;;5040735;28;20469;-62
2022/11/20 10:23:52;;;;;;;12.57;7.13;;;1.80;99.90;;;;;;5046219;28;20052;-61
2022/11/20 10:26:54;;;;;;;12.27;7.47;;;1.80;99.90;;;;;;5018353;28;20045;-62
2022/11/20 10:29:34;;;;;;;13.02;7.10;;;2.00;99.90;;;;;;5033170;28;20116;-63
2022/11/20 10:32:15;;;;;;;13.38;7.15;;;2.10;99.90;;;;;;5047628;28;20060;-62
2022/11/20 10:35:00;;;;;;;12.00;7.40;;;2.00;99.90;;;;;;5036491;28;20037;-62
2022/11/20 10:37:27;;;;;;;13.43;7.32;;;2.20;99.90;;;;;;5042266;28;20034;-63
2022/11/20 10:40:30;;;;;;;12.93;7.03;;;2.30;99.90;;;;;;5036736;28;20053;-62
2022/11/20 10:43:17;;;;;;;11.63;6.90;;;2.40;99.90;;;;;;5039716;28;20112;-63
2022/11/20 10:46:01;;;;;;;15.32;7.55;;;2.50;99.90;;;;;;5042987;28;20080;-62
2022/11/20 10:48:28;;;;;;;11.70;6.78;;;2.60;99.90;;;;;;5040110;28;20358;-62
2022/11/20 10:51:15;;;;;;;12.50;6.80;;;2.70;99.90;;;;;;5031597;28;20041;-63
2022/11/20 10:53:55;;;;;;;11.15;7.03;;;2.80;99.90;;;;;;5040237;28;20429;-61
2022/11/20 10:56:51;;;;;;;15.23;7.50;;;2.80;99.90;;;;;;5038225;28;20042;-62
2022/11/20 10:59:32;;;;;;;11.23;6.20;;;3.00;99.90;;;;;;5037859;28;20044;-62
2022/11/20 11:01:58;;;;;;;13.50;7.45;;;3.10;99.90;;;;;;5030334;28;20176;-62
2022/11/20 11:04:35;;;;;;;10.60;6.65;;;3.20;99.90;;;;;;5045833;28;20662;-63
2022/11/20 11:07:23;;;;;;;11.52;6.85;;;3.30;99.90;;;;;;5034985;28;20065;-63
2022/11/20 11:09:54;;;;;;;9.75;5.80;;;3.30;99.90;;;;;;5043518;28;20071;-62
2022/11/20 11:12:21;;;;;;;9.77;6.05;;;3.40;99.90;;;;;;5030952;28;20085;-63
2022/11/20 11:14:48;;;;;;;9.00;6.15;;;3.30;99.90;;;;;;5046335;28;20051;-62
2022/11/20 11:17:30;;;;;;;8.80;6.03;;;3.20;99.90;;;;;;5039922;28;20105;-63
2022/11/20 11:20:04;;;;;;;8.30;5.10;;;3.30;99.90;;;;;;5047383;28;20079;-63
2022/11/20 11:22:33;;;;;;;10.80;5.93;;;3.10;99.60;;;;;;5027080;28;20033;-62
2022/11/20 11:24:59;;;;;;;8.45;5.10;;;3.10;99.90;;;;;;5034030;28;20156;-64
2022/11/20 11:27:25;;;;;;;8.02;4.93;;;2.90;99.90;;;;;;5040884;28;20033;-62
2022/11/20 11:30:02;;;;;;;8.15;5.47;;;2.90;99.90;;;;;;5034556;28;20037;-62
2022/11/20 11:32:28;;;;;;;10.23;5.72;;;2.80;99.90;;;;;;5042429;28;20037;-63
2022/11/20 11:35:02;;;;;;;9.75;6.00;;;2.80;99.90;;;;;;5032001;28;20045;-63
2022/11/20 11:37:33;;;;;;;8.70;5.65;;;2.80;99.90;;;;;;5038037;28;20060;-62
2022/11/20 11:39:59;;;;;;;11.75;7.10;;;2.80;99.90;;;;;;5036986;28;20731;-61
2022/11/20 11:42:25;;;;;;;12.18;6.50;;;2.80;99.90;;;;;;5044360;28;20037;-62
2022/11/20 11:45:06;;;;;;;10.80;6.45;;;2.80;99.90;;;;;;5048129;28;20473;-63
2022/11/20 11:47:42;;;;;;;13.38;7.38;;;2.80;99.90;;;;;;5031796;28;20045;-63
2022/11/20 11:50:13;;;;;;;13.05;6.75;;;2.80;99.90;;;;;;5033980;28;20091;-63
2022/11/20 11:52:53;;;;;;;10.38;6.18;;;2.80;99.90;;;;;;5045561;28;20124;-63
2022/11/20 11:55:37;;;;;;;;;;;2.80;99.90;;;;;;5032386;28;20061;-62
2022/11/20 11:58:40;;;;;;;7.80;4.90;;;2.80;99.90;;;;;;5040644;28;20011;-62
2022/11/20 12:01:30;;;;;;;9.18;5.20;;;2.70;96.70;;;;;;5035888;28;20098;-64
2022/11/20 12:04:21;;;;;;;7.95;5.10;;;2.70;99.90;;;;;;5029727;28;20067;-64
2022/11/20 12:06:53;;;;;;;10.30;5.40;;;2.60;99.90;;;;;;5034645;28;20118;-64
2022/11/20 12:09:21;;;;;;;9.25;5.40;;;2.60;99.90;;;;;;5036091;28;20049;-64
2022/11/20 12:11:58;;;;;;;9.75;5.13;;;2.60;99.90;;;;;;5033712;28;20068;-63
2022/11/20 12:14:35;;;;;;;7.85;5.00;;;2.60;99.90;;;;;;5036722;28;20124;-62
2022/11/20 12:17:02;;;;;;;8.90;5.40;;;2.70;99.90;;;;;;5042228;28;20767;-62
2022/11/20 12:19:33;;;;;;;10.48;5.60;;;2.80;99.90;;;;;;5041598;28;20037;-63
2022/11/20 12:22:56;;;;;;;8.98;5.05;;;2.80;99.90;;;;;;5038060;28;20115;-62
2022/11/20 12:25:29;;;;;;;10.15;5.18;;;2.90;99.90;;;;;;5007920;28;20146;-62
2022/11/20 12:28:29;;;;;;;7.25;5.07;;;3.00;99.90;;;;;;5012837;28;20512;-64
2022/11/20 12:31:25;;;;;;;9.55;4.82;;;3.10;96.40;;;;;;5024923;28;20045;-62
2022/11/20 12:33:58;;;;;;;9.73;5.10;;;3.10;97.60;;;;;;5047096;28;20044;-65
2022/11/20 12:36:37;;;;;;;10.65;5.07;;;3.20;97.40;;;;;;5047957;28;20048;-63
2022/11/20 12:39:11;;;;;;;9.55;5.05;;;3.40;99.10;;;;;;5041620;28;20049;-63
2022/11/20 12:45:24;;;;;;;10.48;5.35;;;3.50;96.80;;;;;;5031556;28;20076;-62
2022/11/20 12:48:12;;;;;;;8.95;5.70;;;3.60;97.80;;;;;;5032736;28;20531;-64
2022/11/20 12:50:49;;;;;;;11.02;6.57;;;3.60;93.50;;;;;;5042168;28;20837;-65
2022/11/20 12:53:40;;;;;;;8.52;6.05;;;3.30;93.00;;;;;;5033715;28;20041;-63
2022/11/20 12:56:33;;;;;;;11.70;6.38;;;3.30;98.60;;;;;;5030889;28;20065;-63
2022/11/20 12:59:12;;;;;;;9.65;5.85;;;3.20;97.50;;;;;;5029463;28;20037;-63
2022/11/20 13:01:44;;;;;;;11.13;6.40;;;3.20;98.10;;;;;;5044062;28;20041;-63
2022/11/20 13:04:34;;;;;;;12.63;6.82;;;3.20;99.90;;;;;;5033674;28;20037;-62